Time;durP1;ratioP1;P1;durP2;ratioP2;P2;SDS_P1;SDS_P2;PMS_P1;PMS_P2;Temp;Humidity;BMP_temperature;BMP_pressure;BME280_temperature;BME280_humidity;BME280_pressure;Samples;Min_cycle;Max_cycle;Signal;HPM_P1;HPM_P2
2022/03/30 00:00:56;;;;;;;18.50;9.82;;;;;;;14.57;35.13;98669.63;4458856;32;35099;-75
2022/03/30 00:03:24;;;;;;;17.00;9.73;;;;;;;14.63;34.95;98674.09;4459292;32;32278;-75
2022/03/30 00:05:55;;;;;;;16.55;9.75;;;;;;;14.54;35.08;98669.31;4472484;32;34961;-76
2022/03/30 00:08:22;;;;;;;17.02;9.18;;;;;;;14.53;35.07;98662.13;4459033;32;32898;-75
2022/03/30 00:10:51;;;;;;;19.35;10.10;;;;;;;14.55;35.15;98669.03;4459356;32;34137;-75
2022/03/30 00:13:19;;;;;;;15.48;9.55;;;;;;;14.52;35.15;98666.81;4472175;32;32529;-75
2022/03/30 00:15:46;;;;;;;15.27;9.18;;;;;;;14.50;35.24;98669.00;4459313;32;33836;-76
2022/03/30 00:18:17;;;;;;;18.37;9.55;;;;;;;14.44;35.30;98668.09;4471676;32;32982;-75
2022/03/30 00:20:48;;;;;;;18.50;9.13;;;;;;;14.31;35.57;98676.75;4486320;32;34272;-76
2022/03/30 00:23:16;;;;;;;16.42;8.90;;;;;;;14.33;35.61;98668.19;4472168;32;33569;-76
2022/03/30 00:25:44;;;;;;;15.27;9.00;;;;;;;14.32;35.64;98672.06;4459116;32;34643;-75
2022/03/30 00:28:16;;;;;;;17.10;8.93;;;;;;;14.29;35.66;98667.91;4461203;32;34295;-76
2022/03/30 00:30:47;;;;;;;16.30;9.18;;;;;;;14.13;35.58;98655.84;4463248;32;33531;-75
2022/03/30 00:33:14;;;;;;;20.83;10.00;;;;;;;14.09;35.67;98645.59;4462021;32;33320;-75
2022/03/30 00:35:42;;;;;;;18.05;9.93;;;;;;;14.20;35.00;98646.53;4461380;32;33832;-75
2022/03/30 00:38:10;;;;;;;17.30;10.32;;;;;;;14.32;34.44;98638.94;4474022;32;35310;-76
2022/03/30 00:40:38;;;;;;;16.55;9.32;;;;;;;14.29;34.47;98642.25;4460508;32;32285;-77
2022/03/30 00:43:05;;;;;;;16.45;9.77;;;;;;;14.42;33.89;98631.63;4459322;32;31952;-76
2022/03/30 00:45:37;;;;;;;15.55;9.77;;;;;;;14.59;33.57;98630.69;4459076;32;32689;-76
2022/03/30 00:48:05;;;;;;;15.20;9.45;;;;;;;14.27;34.09;98627.88;4472537;32;35408;-76
2022/03/30 00:50:35;;;;;;;16.83;9.65;;;;;;;14.63;33.50;98624.41;4459222;32;32644;-76
2022/03/30 00:53:08;;;;;;;20.08;10.90;;;;;;;14.67;33.55;98622.78;4471740;32;33525;-76
2022/03/30 00:55:37;;;;;;;17.95;10.02;;;;;;;14.63;33.66;98624.41;4446228;32;32443;-76
2022/03/30 00:58:06;;;;;;;19.83;10.82;;;;;;;14.81;33.37;98628.72;4485752;32;34385;-76
2022/03/30 01:00:33;;;;;;;21.25;10.73;;;;;;;14.42;34.42;98622.53;4458999;32;33575;-76
2022/03/30 01:03:01;;;;;;;19.48;10.65;;;;;;;14.61;34.25;98620.22;4471649;32;33401;-76
2022/03/30 01:05:29;;;;;;;20.90;11.05;;;;;;;14.37;34.72;98619.66;4471996;32;34515;-76
2022/03/30 01:07:59;;;;;;;19.75;10.63;;;;;;;14.48;34.50;98629.75;4471894;32;34372;-76
2022/03/30 01:10:27;;;;;;;20.00;10.35;;;;;;;14.61;34.31;98631.28;4459159;32;34777;-75
2022/03/30 01:12:55;;;;;;;20.25;9.90;;;;;;;14.53;34.50;98623.47;4472128;32;33624;-76
2022/03/30 01:15:23;;;;;;;19.42;10.38;;;;;;;14.52;34.79;98630.91;4471727;32;33669;-76
2022/03/30 01:17:53;;;;;;;16.27;9.80;;;;;;;14.54;34.77;98630.66;4471504;32;35120;-76
2022/03/30 01:20:22;;;;;;;14.60;9.52;;;;;;;14.60;34.50;98624.91;4458855;32;34871;-76
2022/03/30 01:22:50;;;;;;;17.15;9.15;;;;;;;14.73;34.32;98618.97;4472184;32;33592;-76
2022/03/30 01:25:18;;;;;;;16.65;9.38;;;;;;;14.75;34.33;98616.78;4471635;32;34504;-76
2022/03/30 01:27:46;;;;;;;15.88;9.20;;;;;;;14.78;34.13;98621.78;4471610;32;35578;-77
2022/03/30 01:33:07;;;;;;;18.60;10.77;;;;;;;14.72;34.18;98605.44;4472827;32;33536;-76
2022/03/30 01:35:36;;;;;;;16.25;9.98;;;;;;;14.82;34.30;98609.13;4458375;32;32307;-76
2022/03/30 01:38:04;;;;;;;21.40;9.73;;;;;;;14.89;34.47;98605.31;4485662;32;34623;-76
2022/03/30 01:40:34;;;;;;;16.17;9.35;;;;;;;14.79;34.64;98606.03;4471478;32;33870;-76
2022/03/30 01:43:05;;;;;;;13.85;8.40;;;;;;;14.88;34.68;98600.88;4485518;32;33492;-76
2022/03/30 01:45:34;;;;;;;20.42;8.80;;;;;;;14.93;34.60;98595.41;4471601;32;33718;-76
2022/03/30 01:48:04;;;;;;;15.98;9.05;;;;;;;14.79;34.82;98593.06;4471404;32;35015;-76
2022/03/30 01:50:36;;;;;;;14.80;8.93;;;;;;;14.49;35.41;98585.31;4471359;32;34715;-76
2022/03/30 01:53:06;;;;;;;16.35;9.20;;;;;;;14.62;35.27;98591.53;4458454;32;32980;-76
2022/03/30 01:55:34;;;;;;;15.43;9.23;;;;;;;14.41;35.62;98591.31;4471640;32;33682;-76
2022/03/30 01:58:05;;;;;;;15.60;9.20;;;;;;;14.48;35.47;98593.88;4471124;32;34582;-76
2022/03/30 02:00:33;;;;;;;18.52;9.18;;;;;;;14.34;35.79;98581.53;4458195;32;32624;-76
2022/03/30 02:03:01;;;;;;;19.25;9.68;;;;;;;14.35;35.69;98591.50;4485485;32;34165;-76
2022/03/30 02:05:31;;;;;;;17.12;9.35;;;;;;;14.46;35.58;98579.50;4445627;32;33178;-76
2022/03/30 02:07:58;;;;;;;15.93;9.52;;;;;;;14.24;35.93;98573.19;4471352;32;34139;-76
2022/03/30 02:10:28;;;;;;;15.02;8.73;;;;;;;14.27;36.13;98576.25;4471292;32;34695;-76
2022/03/30 02:12:58;;;;;;;13.95;9.32;;;;;;;14.01;36.50;98574.31;4458530;32;33528;-76
2022/03/30 02:15:25;;;;;;;15.18;8.50;;;;;;;14.11;36.54;98578.03;4471443;32;33648;-76
2022/03/30 02:17:53;;;;;;;13.18;9.02;;;;;;;14.20;36.35;98574.81;4458455;32;34531;-76
2022/03/30 02:20:21;;;;;;;17.55;9.35;;;;;;;14.20;36.35;98574.81;4458083;32;32583;-76
2022/03/30 02:22:48;;;;;;;15.18;8.48;;;;;;;13.99;36.90;98569.06;4460652;32;31787;-76
2022/03/30 02:25:16;;;;;;;13.75;8.00;;;;;;;13.95;37.07;98578.09;4476254;32;33804;-76
2022/03/30 02:27:47;;;;;;;15.93;9.43;;;;;;;14.05;36.89;98580.97;4476259;32;34525;-76
2022/03/30 02:30:15;;;;;;;14.10;9.32;;;;;;;13.84;37.41;98574.38;4490326;32;33820;-76
2022/03/30 02:32:44;;;;;;;16.37;9.18;;;;;;;13.55;38.02;98578.44;4450371;32;33208;-76
2022/03/30 02:35:12;;;;;;;15.82;9.52;;;;;;;13.51;38.17;98581.72;4463101;32;34621;-76
2022/03/30 02:37:40;;;;;;;19.12;9.20;;;;;;;13.55;38.09;98583.97;4463229;32;34412;-76
2022/03/30 02:40:08;;;;;;;13.52;8.40;;;;;;;13.63;38.04;98591.78;4475824;32;33870;-76
2022/03/30 02:42:39;;;;;;;15.90;8.48;;;;;;;13.74;37.83;98588.03;4475953;32;33689;-76
2022/03/30 02:45:07;;;;;;;19.70;8.30;;;;;;;13.87;37.69;98593.19;4463064;32;33858;-76
2022/03/30 02:50:21;;;;;;;14.60;8.70;;;;;;;13.88;37.73;98582.97;4490112;32;34643;-76
2022/03/30 02:52:48;;;;;;;19.90;9.07;;;;;;;13.97;37.59;98582.28;4475939;32;33655;-76
2022/03/30 02:55:16;;;;;;;15.43;8.43;;;;;;;14.00;37.57;98579.00;4475570;32;33770;-76
2022/03/30 02:57:43;;;;;;;15.77;8.30;;;;;;;14.02;37.62;98581.50;4475913;32;34216;-76
2022/03/30 03:00:11;;;;;;;18.25;9.25;;;;;;;13.82;38.01;98584.84;4475632;32;35034;-76
2022/03/30 03:02:39;;;;;;;18.17;8.93;;;;;;;13.99;37.70;98590.28;4475663;32;33846;-76
2022/03/30 03:05:07;;;;;;;15.10;8.90;;;;;;;13.88;37.91;98585.75;4475460;32;34541;-76
2022/03/30 03:07:35;;;;;;;18.60;8.02;;;;;;;13.89;37.94;98582.72;4475653;32;34601;-76
2022/03/30 03:10:06;;;;;;;15.20;7.68;;;;;;;13.86;37.99;98580.47;4462450;32;32436;-75
2022/03/30 03:12:34;;;;;;;15.98;8.52;;;;;;;13.87;38.02;98584.06;4471897;32;113917;-76
2022/03/30 03:15:02;;;;;;;17.48;8.07;;;;;;;13.77;38.09;98582.03;4475165;32;32523;-76
2022/03/30 03:17:32;;;;;;;17.92;8.38;;;;;;;13.70;38.29;98589.66;4475555;32;34424;-76
2022/03/30 03:20:00;;;;;;;16.65;7.93;;;;;;;13.68;38.29;98597.34;4475512;32;33843;-76
2022/03/30 03:22:28;;;;;;;14.90;7.80;;;;;;;13.47;40.42;98599.00;4475268;32;33593;-76
2022/03/30 03:24:56;;;;;;;16.45;8.45;;;;;;;13.54;39.20;98582.28;4489777;32;34036;-76
2022/03/30 03:27:23;;;;;;;17.33;7.53;;;;;;;13.28;39.50;98587.44;4462377;32;33047;-75
2022/03/30 03:29:51;;;;;;;14.13;7.80;;;;;;;13.29;39.45;98585.50;4475287;32;33956;-77
2022/03/30 03:32:20;;;;;;;14.10;7.28;;;;;;;13.34;39.46;98591.09;4475429;32;33363;-76
2022/03/30 03:34:49;;;;;;;13.88;8.40;;;;;;;13.15;39.85;98591.34;4459507;32;34469;-76
2022/03/30 03:37:16;;;;;;;17.73;8.32;;;;;;;13.32;39.54;98585.00;4459457;32;35290;-76
2022/03/30 03:39:47;;;;;;;14.27;9.05;;;;;;;13.41;43.80;98589.84;4472461;32;33921;-78
2022/03/30 03:42:16;;;;;;;15.18;7.85;;;;;;;13.81;39.91;98584.00;4486393;32;34606;-77
2022/03/30 03:44:44;;;;;;;19.25;8.27;;;;;;;13.24;40.12;98578.00;4472362;32;33701;-77
2022/03/30 03:47:11;;;;;;;16.20;7.60;;;;;;;13.06;40.29;98583.75;4459534;32;34055;-76
2022/03/30 03:49:42;;;;;;;13.05;7.60;;;;;;;12.97;40.37;98577.03;4447011;32;32235;-77
2022/03/30 03:52:09;;;;;;;13.00;6.95;;;;;;;13.13;40.02;98576.16;4472071;32;32111;-76
2022/03/30 03:54:37;;;;;;;14.02;8.35;;;;;;;12.92;40.55;98585.22;4486468;32;34024;-76
2022/03/30 03:57:05;;;;;;;14.15;8.15;;;;;;;12.76;40.98;98581.38;4472275;32;34541;-76
2022/03/30 03:59:35;;;;;;;15.02;7.80;;;;;;;12.69;41.41;98581.53;4486496;32;34173;-76
2022/03/30 04:02:04;;;;;;;17.30;7.62;;;;;;;12.89;41.02;98580.22;4459243;32;31917;-76
2022/03/30 04:04:37;;;;;;;11.57;7.80;;;;;;;12.66;41.82;98589.47;4471994;32;32621;-77
2022/03/30 04:07:07;;;;;;;13.73;8.18;;;;;;;12.80;41.56;98580.63;4459456;32;34333;-76
2022/03/30 04:09:36;;;;;;;12.98;7.60;;;;;;;12.67;41.63;98578.19;4459284;32;33433;-76
2022/03/30 04:12:04;;;;;;;14.25;7.80;;;;;;;12.71;41.14;98571.13;4486130;32;33429;-76
2022/03/30 04:14:32;;;;;;;15.50;7.70;;;;;;;12.69;41.45;98572.44;4472046;32;33199;-76
2022/03/30 04:17:02;;;;;;;21.20;7.68;;;;;;;12.58;41.74;98571.44;4459084;32;35193;-77
2022/03/30 04:19:30;;;;;;;12.50;7.62;;;;;;;12.58;41.94;98568.69;4471913;32;34898;-76
2022/03/30 04:21:57;;;;;;;17.55;7.53;;;;;;;12.56;41.78;98576.34;4458934;32;31902;-77
2022/03/30 04:24:28;;;;;;;12.73;7.40;;;;;;;12.71;41.40;98579.38;4486248;32;33708;-77
2022/03/30 04:26:55;;;;;;;14.65;7.72;;;;;;;12.41;42.04;98567.84;4472302;32;33955;-76
2022/03/30 04:29:23;;;;;;;13.85;8.40;;;;;;;12.52;41.61;98575.19;4459327;32;32470;-76
2022/03/30 04:31:53;;;;;;;17.52;8.35;;;;;;;12.54;41.61;98579.34;4459420;32;33649;-76
2022/03/30 04:34:21;;;;;;;15.57;8.73;;;;;;;12.47;41.68;98580.59;4458812;32;32320;-76
2022/03/30 04:36:51;;;;;;;13.23;7.43;;;;;;;12.41;41.74;98584.34;4485824;32;35536;-76
2022/03/30 04:39:19;;;;;;;12.70;7.82;;;;;;;12.46;41.68;98581.69;4472434;32;33921;-77
2022/03/30 04:41:49;;;;;;;15.95;8.63;;;;;;;12.36;41.97;98578.75;4471930;32;33679;-76
2022/03/30 04:44:18;;;;;;;14.75;7.93;;;;;;;12.26;42.32;98587.69;4459023;32;32194;-76
2022/03/30 04:46:46;;;;;;;15.23;7.82;;;;;;;12.30;42.37;98582.53;4471775;32;34533;-79
2022/03/30 04:49:14;;;;;;;15.57;8.70;;;;;;;12.29;45.23;98589.09;4459184;32;34825;-79
2022/03/30 04:51:42;;;;;;;20.25;9.43;;;;;;;12.46;43.01;98581.69;4472093;32;33559;-79
2022/03/30 04:54:12;;;;;;;14.52;8.57;;;;;;;12.09;43.79;98584.03;4472249;32;34524;-78
2022/03/30 04:56:42;;;;;;;19.98;9.30;;;;;;;12.06;43.80;98587.28;4459202;32;34534;-78
2022/03/30 04:59:11;;;;;;;20.90;9.27;;;;;;;11.80;44.00;98583.19;4471886;32;34106;-78
2022/03/30 05:01:38;;;;;;;21.08;9.23;;;;;;;12.12;43.65;98591.81;4471417;32;34127;-78
2022/03/30 05:04:06;;;;;;;20.23;8.70;;;;;;;12.70;42.16;98588.72;4445809;32;32542;-79
2022/03/30 05:06:39;;;;;;;20.25;8.68;;;;;;;12.55;42.56;98604.97;4458548;32;33054;-79
2022/03/30 05:09:06;;;;;;;16.77;8.27;;;;;;;11.88;44.46;98591.06;4458804;32;34838;-78
2022/03/30 05:11:34;;;;;;;14.95;8.13;;;;;;;11.62;44.99;98613.59;4485457;32;33621;-79
2022/03/30 05:14:08;;;;;;;13.62;8.02;;;;;;;11.61;44.82;98618.25;4445880;32;31726;-78
2022/03/30 05:16:35;;;;;;;15.02;8.35;;;;;;;11.55;45.50;98616.47;4459067;32;34225;-78
2022/03/30 05:19:03;;;;;;;17.60;7.97;;;;;;;11.63;45.71;98623.50;4471364;32;33988;-78
2022/03/30 05:21:31;;;;;;;23.12;9.75;;;;;;;11.73;45.94;98620.94;4470458;32;33535;-78
2022/03/30 05:24:02;;;;;;;17.50;8.65;;;;;;;12.14;44.76;98619.91;4470103;32;33769;-78
2022/03/30 05:26:35;;;;;;;15.23;8.90;;;;;;;11.95;45.73;98618.41;4457073;32;32926;-78
2022/03/30 05:29:03;;;;;;;24.10;9.50;;;;;;;11.89;46.38;98620.22;4457091;32;33767;-77
2022/03/30 05:31:30;;;;;;;19.30;8.75;;;;;;;11.85;46.66;98630.03;4457241;32;33331;-77
2022/03/30 05:33:58;;;;;;;17.17;8.90;;;;;;;11.90;46.08;98624.62;4457705;32;34659;-77
2022/03/30 05:36:29;;;;;;;15.50;8.02;;;;;;;12.13;45.62;98629.22;4470969;32;34387;-77
2022/03/30 05:38:59;;;;;;;17.55;8.07;;;;;;;11.90;46.58;98626.56;4458484;32;32553;-77
2022/03/30 05:41:35;;;;;;;15.77;8.52;;;;;;;12.11;46.38;98628.63;4471141;32;33517;-76
2022/03/30 05:44:03;;;;;;;13.37;9.17;;;;;;;12.76;44.26;98619.91;4471799;32;34160;-76
2022/03/30 05:46:30;;;;;;;17.10;9.70;;;;;;;13.14;42.65;98619.16;4458699;32;34463;-76
2022/03/30 05:49:01;;;;;;;19.85;9.85;;;;;;;13.14;42.64;98610.88;4458691;32;33810;-77
2022/03/30 05:51:32;;;;;;;20.60;9.48;;;;;;;12.81;44.14;98620.84;4471655;32;33601;-76
2022/03/30 05:54:00;;;;;;;18.90;9.30;;;;;;;12.92;43.77;98623.78;4471663;32;34694;-76
2022/03/30 05:59:17;;;;;;;15.57;9.15;;;;;;;13.10;43.15;98620.75;4485280;32;34101;-76
2022/03/30 06:01:47;;;;;;;15.13;8.88;;;;;;;13.15;43.15;98607.88;4471056;32;32779;-76
2022/03/30 06:04:18;;;;;;;19.05;9.55;;;;;;;13.49;42.45;98619.72;4458356;32;32273;-76
2022/03/30 06:06:46;;;;;;;20.85;9.65;;;;;;;13.35;42.40;98617.56;4471056;32;34636;-77
2022/03/30 06:09:13;;;;;;;18.62;8.95;;;;;;;13.47;42.54;98627.41;4485540;32;33936;-76
2022/03/30 06:11:44;;;;;;;14.30;8.88;;;;;;;13.81;41.83;98625.38;4471310;32;34449;-77
2022/03/30 06:14:12;;;;;;;18.30;9.30;;;;;;;13.75;41.43;98611.78;4458331;32;34349;-76
2022/03/30 06:16:39;;;;;;;16.48;9.40;;;;;;;13.94;41.07;98604.03;4471095;32;34251;-77
2022/03/30 06:19:11;;;;;;;15.88;9.48;;;;;;;13.88;41.24;98611.41;4471328;32;34069;-77
2022/03/30 06:21:42;;;;;;;18.95;9.20;;;;;;;13.84;42.24;98622.09;4471195;32;32868;-77
2022/03/30 06:24:10;;;;;;;16.25;8.80;;;;;;;14.10;41.13;98611.38;4470918;32;32249;-77
2022/03/30 06:26:42;;;;;;;18.17;9.80;;;;;;;14.37;40.44;98616.91;4458265;32;33913;-76
2022/03/30 06:29:13;;;;;;;18.37;9.45;;;;;;;14.45;40.30;98619.25;4471358;32;34786;-76
2022/03/30 06:31:43;;;;;;;18.20;9.70;;;;;;;14.65;40.27;98610.34;4485129;32;34311;-77
2022/03/30 06:34:13;;;;;;;19.80;10.95;;;;;;;14.96;39.25;98608.66;4458038;32;32140;-77
2022/03/30 06:36:40;;;;;;;16.37;9.15;;;;;;;15.36;38.13;98614.50;4470780;32;34363;-77
2022/03/30 06:39:08;;;;;;;18.15;9.10;;;;;;;15.21;37.90;98614.37;4470882;32;34709;-77
2022/03/30 06:41:38;;;;;;;16.37;9.43;;;;;;;15.63;37.45;98621.84;4457852;32;31796;-77
2022/03/30 06:44:05;;;;;;;19.35;9.57;;;;;;;15.46;36.87;98628.37;4484962;32;34566;-77
2022/03/30 06:46:38;;;;;;;17.95;9.90;;;;;;;15.60;36.73;98623.22;4470856;32;35273;-76
2022/03/30 06:49:07;;;;;;;29.87;15.98;;;;;;;15.84;36.72;98628.34;4458080;32;33605;-77
2022/03/30 06:51:34;;;;;;;41.55;22.90;;;;;;;16.05;36.30;98622.63;4457695;32;32915;-77
2022/03/30 06:54:02;;;;;;;36.35;21.02;;;;;;;15.97;37.18;98623.16;4457820;32;33736;-77
2022/03/30 06:56:31;;;;;;;18.83;11.02;;;;;;;16.27;35.67;98621.56;4457775;32;34424;-77
2022/03/30 06:58:58;;;;;;;19.92;9.75;;;;;;;16.43;35.38;98621.34;4444779;32;32470;-77
2022/03/30 07:01:32;;;;;;;18.30;11.15;;;;;;;16.76;35.54;98620.06;4471207;32;33219;-77
2022/03/30 07:04:01;;;;;;;23.95;10.48;;;;;;;16.94;34.95;98621.44;4457613;32;33248;-78
2022/03/30 07:06:32;;;;;;;24.27;10.02;;;;;;;16.89;34.46;98617.88;4457492;32;33003;-77
2022/03/30 07:11:53;;;;;;;23.12;9.93;;;;;;;17.04;34.54;98615.06;4460322;32;31866;-76
2022/03/30 07:14:26;;;;;;;19.23;10.38;;;;;;;16.89;34.65;98620.63;4473005;32;34567;-77
2022/03/30 07:16:53;;;;;;;20.10;10.18;;;;;;;17.10;34.89;98619.50;4486456;32;34301;-77
2022/03/30 07:19:21;;;;;;;16.25;9.98;;;;;;;17.40;33.21;98613.13;4472626;32;34698;-77
2022/03/30 07:21:49;;;;;;;19.50;10.35;;;;;;;17.33;33.32;98623.66;4472557;32;33649;-77
2022/03/30 07:24:16;;;;;;;19.62;10.73;;;;;;;17.42;33.78;98614.50;4486738;32;33932;-77
2022/03/30 07:26:44;;;;;;;20.80;10.70;;;;;;;17.65;33.84;98612.22;4472626;32;34435;-77
2022/03/30 07:29:12;;;;;;;21.05;10.48;;;;;;;17.94;33.74;98610.50;4472538;32;33974;-77
2022/03/30 07:31:39;;;;;;;23.75;10.75;;;;;;;18.00;32.57;98609.34;4472556;32;33569;-77
2022/03/30 07:34:15;;;;;;;20.62;11.05;;;;;;;17.68;34.08;98604.19;4460837;32;33637;-77
2022/03/30 07:36:42;;;;;;;21.85;10.48;;;;;;;17.84;34.11;98602.19;4472388;32;34278;-77
2022/03/30 07:39:10;;;;;;;21.52;11.07;;;;;;;18.18;33.12;98596.78;4486499;32;34003;-77
2022/03/30 07:41:38;;;;;;;21.00;11.77;;;;;;;18.10;32.49;98603.78;4446725;32;32233;-77
2022/03/30 07:44:05;;;;;;;22.77;12.23;;;;;;;18.21;32.08;98590.63;4472655;32;34625;-77
2022/03/30 07:46:33;;;;;;;19.85;12.77;;;;;;;18.32;31.92;98597.81;4459824;32;35066;-77
2022/03/30 07:49:01;;;;;;;25.02;12.75;;;;;;;18.18;31.76;98601.50;4472523;32;33939;-77
2022/03/30 07:51:29;;;;;;;22.05;11.88;;;;;;;18.50;31.55;98598.25;4472401;32;33553;-77
2022/03/30 07:53:57;;;;;;;17.60;11.60;;;;;;;18.55;31.33;98595.44;4459260;32;32277;-77
2022/03/30 07:56:27;;;;;;;22.87;12.13;;;;;;;18.24;32.62;98606.72;4472540;32;35215;-77
2022/03/30 07:58:56;;;;;;;20.83;11.52;;;;;;;18.45;32.17;98607.47;4458946;32;32829;-77
2022/03/30 08:01:23;;;;;;;20.48;11.80;;;;;;;18.78;31.42;98614.22;4446797;32;33050;-77
2022/03/30 08:03:51;;;;;;;25.80;12.90;;;;;;;18.53;30.29;98611.59;4472725;32;34548;-77
2022/03/30 08:06:19;;;;;;;21.60;12.40;;;;;;;18.58;30.29;98611.56;4486368;32;34263;-77
2022/03/30 08:08:47;;;;;;;20.35;11.60;;;;;;;18.62;32.08;98607.94;4472357;32;34110;-77
2022/03/30 08:11:14;;;;;;;22.75;13.13;;;;;;;18.90;31.66;98602.72;4472221;32;33644;-78
2022/03/30 08:13:42;;;;;;;25.30;12.32;;;;;;;18.95;30.92;98606.28;4459502;32;33803;-77
2022/03/30 08:16:13;;;;;;;25.73;12.88;;;;;;;18.80;29.70;98611.16;4472125;32;34323;-77
2022/03/30 08:18:41;;;;;;;23.17;12.50;;;;;;;18.77;29.35;98622.88;4459176;32;32427;-77
2022/03/30 08:23:55;;;;;;;25.85;12.43;;;;;;;18.63;29.61;98619.88;4461115;32;33116;-77
2022/03/30 08:26:23;;;;;;;28.30;13.62;;;;;;;19.02;29.14;98614.31;4459607;32;34463;-77
2022/03/30 08:28:50;;;;;;;22.50;13.27;;;;;;;19.04;29.62;98615.69;4459062;32;32555;-77
2022/03/30 08:31:18;;;;;;;29.37;15.07;;;;;;;19.20;30.18;98618.34;4459307;32;34321;-78
2022/03/30 08:33:49;;;;;;;25.33;13.32;;;;;;;19.67;30.49;98624.03;4472130;32;33507;-77
2022/03/30 08:36:17;;;;;;;24.15;12.90;;;;;;;20.11;30.01;98614.63;4458969;32;32872;-78
2022/03/30 08:38:45;;;;;;;27.37;12.43;;;;;;;20.14;30.27;98622.37;4458912;32;32445;-77
2022/03/30 08:41:13;;;;;;;25.10;11.93;;;;;;;20.04;30.83;98623.34;4472113;32;34551;-77
2022/03/30 08:43:41;;;;;;;24.95;12.05;;;;;;;20.11;30.52;98622.16;4471574;32;32257;-77
2022/03/30 08:46:09;;;;;;;21.77;12.15;;;;;;;20.01;31.42;98634.25;4472059;32;35041;-77
2022/03/30 08:48:37;;;;;;;23.38;12.18;;;;;;;20.35;29.74;98637.69;4446367;32;33326;-77
2022/03/30 08:51:07;;;;;;;20.85;11.43;;;;;;;20.55;29.27;98625.47;4459015;32;33102;-77
2022/03/30 08:53:35;;;;;;;26.87;12.30;;;;;;;19.90;30.66;98627.13;4459876;32;33655;-77
2022/03/30 08:56:08;;;;;;;19.05;11.00;;;;;;;19.69;31.80;98637.63;4459679;32;34166;-77
2022/03/30 08:58:36;;;;;;;22.00;11.38;;;;;;;19.65;32.48;98625.44;4458862;32;32619;-77
2022/03/30 09:01:08;;;;;;;20.60;10.63;;;;;;;19.37;32.60;98629.87;4471873;32;33388;-77
2022/03/30 09:03:37;;;;;;;19.08;11.12;;;;;;;19.41;32.80;98630.94;4458951;32;32225;-77
2022/03/30 09:06:07;;;;;;;18.90;11.93;;;;;;;19.47;32.36;98629.78;4471928;32;35427;-77
2022/03/30 09:08:39;;;;;;;26.90;11.77;;;;;;;19.94;31.16;98619.84;4471895;32;34698;-77
2022/03/30 09:11:12;;;;;;;22.62;12.15;;;;;;;19.84;30.90;98617.16;4471905;32;33264;-77
2022/03/30 09:13:43;;;;;;;21.00;11.07;;;;;;;19.56;32.22;98618.84;4458946;32;33975;-77
2022/03/30 09:16:13;;;;;;;15.73;10.85;;;;;;;19.61;32.33;98614.06;4458735;32;32990;-77
2022/03/30 09:18:41;;;;;;;20.08;11.85;;;;;;;19.66;32.70;98625.12;4458710;32;34188;-77
2022/03/30 09:21:12;;;;;;;19.92;11.77;;;;;;;19.85;31.97;98622.44;4471691;32;34286;-77
2022/03/30 09:23:46;;;;;;;20.60;11.18;;;;;;;19.99;31.58;98620.59;4458708;32;33261;-77
2022/03/30 09:26:13;;;;;;;20.33;11.18;;;;;;;19.74;31.97;98621.72;4471837;32;35223;-78
2022/03/30 09:28:41;;;;;;;19.20;10.60;;;;;;;19.51;33.11;98618.88;4458660;32;33641;-77
2022/03/30 09:31:09;;;;;;;18.15;10.25;;;;;;;19.62;32.86;98624.06;4471280;32;34163;-77
2022/03/30 09:33:37;;;;;;;23.67;11.75;;;;;;;19.61;33.32;98608.50;4471170;32;33794;-77
2022/03/30 09:36:04;;;;;;;21.37;11.30;;;;;;;19.73;33.19;98614.50;4458816;32;34581;-77
2022/03/30 09:38:38;;;;;;;23.85;11.10;;;;;;;19.63;32.62;98611.81;4471590;32;33955;-77
2022/03/30 09:41:11;;;;;;;22.08;11.88;;;;;;;19.50;32.91;98614.44;4458875;32;33512;-77
2022/03/30 09:43:41;;;;;;;24.67;12.00;;;;;;;19.26;33.50;98622.75;4458151;32;32210;-77
2022/03/30 09:46:13;;;;;;;20.45;11.02;;;;;;;19.16;33.68;98614.47;4471527;32;34211;-77
2022/03/30 09:48:56;;;;;;;22.48;11.35;;;;;;;19.34;33.17;98608.19;4471851;32;34149;-77
2022/03/30 09:51:30;;;;;;;21.48;12.48;;;;;;;19.47;32.69;98601.13;4473111;32;33350;-77
2022/03/30 09:53:57;;;;;;;22.73;11.80;;;;;;;19.12;33.88;98599.50;4471266;32;33166;-77
2022/03/30 09:56:32;;;;;;;20.30;11.15;;;;;;;19.66;32.49;98602.88;4471507;32;34655;-77
2022/03/30 09:59:02;;;;;;;25.05;11.23;;;;;;;19.40;33.67;98593.13;4471518;32;34696;-77
2022/03/30 10:01:33;;;;;;;22.62;11.75;;;;;;;19.41;32.79;98592.00;4471333;32;33535;-77
2022/03/30 10:04:08;;;;;;;16.05;10.05;;;;;;;18.88;33.92;98588.28;4471626;32;34554;-77
2022/03/30 10:06:40;;;;;;;19.85;11.07;;;;;;;19.45;32.74;98583.87;4459064;32;34354;-77
2022/03/30 10:09:16;;;;;;;19.45;10.75;;;;;;;19.24;33.43;98584.09;4485488;32;34797;-77
2022/03/30 10:11:44;;;;;;;17.83;10.43;;;;;;;19.17;33.60;98580.81;4471292;32;33387;-77
2022/03/30 10:14:12;;;;;;;19.45;10.23;;;;;;;19.14;33.80;98586.97;4458419;32;34513;-77
2022/03/30 10:16:43;;;;;;;21.65;10.63;;;;;;;19.26;33.81;98584.63;4471649;32;34682;-77
2022/03/30 10:19:12;;;;;;;22.10;11.35;;;;;;;19.13;34.37;98585.28;4468281;32;33989;-77
2022/03/30 10:21:50;;;;;;;16.75;10.05;;;;;;;19.26;33.47;98579.06;4468408;32;33351;-77
2022/03/30 10:24:27;;;;;;;19.52;11.02;;;;;;;19.25;33.22;98585.75;4443494;32;32410;-77
2022/03/30 10:27:04;;;;;;;19.37;9.65;;;;;;;19.35;33.35;98588.44;4469525;32;35412;-75
2022/03/30 10:29:35;;;;;;;17.77;10.57;;;;;;;19.34;33.29;98564.50;4455487;32;32854;-75
2022/03/30 10:32:23;;;;;;;15.70;9.55;;;;;;;19.48;33.40;98567.44;4468476;32;33619;-74
2022/03/30 10:34:56;;;;;;;14.65;9.32;;;;;;;19.58;33.26;98574.84;4455429;32;32067;-75
2022/03/30 10:37:30;;;;;;;21.83;10.00;;;;;;;19.63;33.48;98561.72;4469551;32;34077;-75
2022/03/30 10:40:02;;;;;;;21.55;10.45;;;;;;;19.82;33.05;98564.56;4455693;32;34038;-75
2022/03/30 10:42:46;;;;;;;19.35;10.02;;;;;;;20.08;32.78;98561.47;4469155;32;34469;-75
2022/03/30 10:45:41;;;;;;;15.20;10.02;;;;;;;20.08;32.20;98555.88;4457308;32;33345;-75
2022/03/30 10:48:12;;;;;;;15.65;9.60;;;;;;;20.22;32.31;98556.78;4462949;32;35274;-75
2022/03/30 10:50:48;;;;;;;14.75;8.88;;;;;;;20.29;31.16;98558.06;4470134;32;34136;-76
2022/03/30 10:53:34;;;;;;;14.80;9.10;;;;;;;20.39;31.15;98540.41;4470150;32;34509;-75
2022/03/30 10:56:14;;;;;;;17.00;9.05;;;;;;;20.51;30.66;98537.19;4469992;32;33310;-75
2022/03/30 10:58:56;;;;;;;18.87;9.80;;;;;;;20.38;30.78;98538.75;4471043;32;34631;-75
2022/03/30 11:01:28;;;;;;;14.82;8.82;;;;;;;20.42;31.04;98545.37;4471074;32;33962;-75
2022/03/30 11:04:18;;;;;;;16.52;9.30;;;;;;;20.38;31.68;98544.34;4457383;32;32782;-75
2022/03/30 11:06:55;;;;;;;17.02;9.15;;;;;;;20.36;31.68;98543.78;4457096;32;32246;-75
2022/03/30 11:09:32;;;;;;;16.30;9.25;;;;;;;20.28;32.35;98533.28;4469812;32;32974;-75
2022/03/30 11:12:07;;;;;;;;;;;;;;;20.20;32.28;98533.97;4470206;32;34060;-77
2022/03/30 11:14:36;;;;;;;14.32;9.10;;;;;;;20.29;31.96;98529.37;4457412;32;34213;-76
2022/03/30 11:17:08;;;;;;;17.37;9.10;;;;;;;19.77;33.20;98528.41;4457252;32;33992;-77
2022/03/30 11:19:54;;;;;;;18.50;9.43;;;;;;;19.88;32.69;98523.56;4444621;32;32978;-77
2022/03/30 11:22:28;;;;;;;15.38;9.35;;;;;;;19.77;33.18;98516.47;4469845;32;32591;-76
2022/03/30 11:25:09;;;;;;;17.17;10.30;;;;;;;20.09;32.32;98515.75;4469845;32;32059;-77
2022/03/30 11:27:37;;;;;;;19.75;10.30;;;;;;;20.01;31.96;98506.94;4470840;32;34672;-77
2022/03/30 11:30:19;;;;;;;16.23;9.60;;;;;;;19.66;32.98;98515.75;4471073;32;34290;-77
2022/03/30 11:32:49;;;;;;;18.02;9.25;;;;;;;19.65;32.84;98508.53;4456926;32;34004;-77
2022/03/30 11:35:20;;;;;;;14.45;9.15;;;;;;;19.84;32.29;98503.00;4469785;32;32047;-77
2022/03/30 11:38:05;;;;;;;14.75;8.95;;;;;;;19.79;32.45;98506.69;4469801;32;34697;-77
2022/03/30 11:40:39;;;;;;;14.90;9.23;;;;;;;19.82;32.27;98499.69;4456813;32;33869;-77
2022/03/30 11:43:09;;;;;;;19.80;9.82;;;;;;;19.62;32.50;98504.38;4469730;32;34698;-76
2022/03/30 11:45:58;;;;;;;17.45;9.07;;;;;;;19.39;33.39;98494.06;4458926;32;32893;-76
2022/03/30 11:48:25;;;;;;;15.73;9.05;;;;;;;19.73;32.38;98493.94;4444059;32;32260;-77